This is the latest recevied weather packets stored in our database for station/object W1SCW. If no packets are shown the sender has not sent any weather packets the latest 1 day(s).
| Time | Temp. | Humidity | Pressure | Rain* | Wind** | Luminosity | Snow |
|---|---|---|---|---|---|---|---|
| 1778025469 | 27.22° C | 78% | 1005.1 hPa | 0 mm | 1.34 m/s, 102° | 58 W/m² | - |
| 1778025166 | 27.78° C | 78% | 1005.1 hPa | 0 mm | 0.89 m/s, 192° | 51 W/m² | - |
| 1778024863 | 27.22° C | 77% | 1005 hPa | 0 mm | 2.68 m/s, 150° | 66 W/m² | - |
| 1778024561 | 27.78° C | 77% | 1005 hPa | 0 mm | 2.24 m/s, 170° | 63 W/m² | - |
| 1778024257 | 27.78° C | 76% | 1005 hPa | 0 mm | 4.02 m/s, 159° | 94 W/m² | - |
| 1778023955 | 27.78° C | 77% | 1004.8 hPa | 0 mm | 1.34 m/s, 162° | 106 W/m² | - |
| 1778023652 | 27.78° C | 77% | 1005 hPa | 0 mm | 1.79 m/s, 167° | 155 W/m² | - |
| 1778023350 | 27.78° C | 77% | 1004.8 hPa | 0 mm | 2.68 m/s, 142° | 128 W/m² | - |
| 1778023046 | 27.78° C | 77% | 1005 hPa | 0 mm | 1.34 m/s, 174° | 105 W/m² | - |
| 1778022745 | 27.78° C | 78% | 1005 hPa | 0 mm | 1.79 m/s, 149° | 76 W/m² | - |
| 1778022443 | 27.78° C | 78% | 1005 hPa | 0 mm | 1.34 m/s, 148° | 94 W/m² | - |
| 1778022139 | 27.78° C | 77% | 1005 hPa | 0 mm | 0.89 m/s, 75° | 150 W/m² | - |
| 1778021836 | 28.33° C | 77% | 1005.1 hPa | 0 mm | 1.79 m/s, 159° | 129 W/m² | - |
| 1778021533 | 27.78° C | 77% | 1005.1 hPa | 0 mm | 2.24 m/s, 145° | 149 W/m² | - |
| 1778021228 | 28.33° C | 77% | 1005.2 hPa | 0 mm | 0.45 m/s, 116° | 161 W/m² | - |
| 1778020926 | 28.33° C | 77% | 1004.8 hPa | 0 mm | 0.89 m/s, 75° | 157 W/m² | - |
| 1778020623 | 28.33° C | 76% | 1005.1 hPa | 0 mm | 1.34 m/s, 188° | 134 W/m² | - |
| 1778020319 | 28.33° C | 77% | 1005.3 hPa | 0 mm | 0.89 m/s, 216° | 96 W/m² | - |
| 1778020015 | 28.89° C | 75% | 1004.9 hPa | 0 mm | 1.34 m/s, 152° | 151 W/m² | - |
| 1778019712 | 28.33° C | 75% | 1005.3 hPa | 0 mm | 0.45 m/s, 208° | 231 W/m² | - |
| 1778019409 | 28.89° C | 74% | 1005 hPa | 0 mm | 2.24 m/s, 176° | 209 W/m² | - |
| 1778019105 | 28.89° C | 74% | 1005 hPa | 0 mm | 1.79 m/s, 156° | 275 W/m² | - |
| 1778018803 | 28.89° C | 74% | 1005.1 hPa | 0 mm | 0.89 m/s, 141° | 332 W/m² | - |
| 1778018500 | 28.89° C | 74% | 1005.4 hPa | 0 mm | 1.79 m/s, 159° | 186 W/m² | - |
| 1778018198 | 28.89° C | 75% | 1005.4 hPa | 0 mm | 1.34 m/s, 304° | 271 W/m² | - |
* Rain latest hour (hover to see other rain measurements)
** Current wind speed in m/s (hover to see current wind gust speed)